Time,TemperatureF,DewpointF,PressureIn,WindDirection,WindDirectionDegrees,WindSpeedMPH,WindSpeedGustMPH,Humidity,HourlyPrecipIn,Conditions,Clouds,dailyrainin,SoftwareType,DateUTC
2013-05-25 00:04:00,53.3,51.0,30.26,SE,140,8.0,0.0,87,0.00,,,-99.99,,2013-05-25 05:04:00,
2013-05-25 00:34:00,52.5,51.0,30.26,SE,140,8.0,0.0,87,0.00,,,-99.99,,2013-05-25 05:34:00,
2013-05-25 01:04:00,52.8,51.0,30.26,SE,140,6.0,0.0,87,0.00,,,-99.99,,2013-05-25 06:04:00,
2013-05-25 01:34:00,52.2,51.0,30.26,SE,140,6.0,0.0,87,0.00,,,-99.99,,2013-05-25 06:34:00,
2013-05-25 02:05:00,52.2,51.0,30.26,ESE,120,6.0,0.0,87,0.00,,,-99.99,,2013-05-25 07:05:00,
2013-05-25 02:35:00,52.2,51.0,30.26,ESE,120,6.0,0.0,87,0.00,,,-99.99,,2013-05-25 07:35:00,
2013-05-25 03:05:00,52.7,51.0,30.23,SE,130,8.0,0.0,87,0.00,,,-99.99,,2013-05-25 08:05:00,
2013-05-25 03:35:00,52.2,51.0,30.23,SE,130,8.0,0.0,87,0.00,,,-99.99,,2013-05-25 08:35:00,
2013-05-25 04:04:00,52.6,50.0,30.24,SE,130,9.0,0.0,87,0.00,,,-99.99,,2013-05-25 09:04:00,
2013-05-25 04:34:00,52.7,50.0,30.24,SE,130,9.0,0.0,87,0.00,,,-99.99,,2013-05-25 09:34:00,
2013-05-25 05:04:00,52.7,48.0,30.25,ESE,120,13.0,0.0,76,0.00,,,-99.99,,2013-05-25 10:04:00,
2013-05-25 05:34:00,53.5,48.0,30.25,ESE,120,13.0,0.0,76,0.00,,,-99.99,,2013-05-25 10:34:00,
2013-05-25 06:04:00,53.8,48.0,30.24,ESE,110,12.0,0.0,76,0.00,,,-99.99,,2013-05-25 11:04:00,
2013-05-25 06:34:00,54.8,48.0,30.24,ESE,110,12.0,0.0,76,0.00,,,-99.99,,2013-05-25 11:34:00,
2013-05-25 07:04:00,55.6,46.0,30.25,ESE,120,13.0,0.0,71,0.00,,,-99.99,,2013-05-25 12:04:00,
2013-05-25 07:34:00,56.1,46.0,30.25,ESE,120,13.0,0.0,71,0.00,,,-99.99,,2013-05-25 12:34:00,
2013-05-25 08:04:00,57.2,46.0,30.25,SE,130,11.0,0.0,71,0.00,,,-99.99,,2013-05-25 13:04:00,
2013-05-25 08:34:00,58.2,46.0,30.25,SE,130,11.0,0.0,71,0.00,,,-99.99,,2013-05-25 13:34:00,
2013-05-25 09:04:00,58.7,46.0,30.25,ESE,120,16.0,21.0,67,0.00,,,-99.99,,2013-05-25 14:04:00,
2013-05-25 09:34:00,60.1,46.0,30.25,ESE,120,16.0,21.0,67,0.00,,,-99.99,,2013-05-25 14:34:00,
2013-05-25 10:04:00,59.2,46.0,30.25,SE,140,16.0,25.0,62,0.00,,,-99.99,,2013-05-25 15:04:00,
2013-05-25 10:34:00,60.3,46.0,30.25,SE,140,16.0,25.0,62,0.00,,,-99.99,,2013-05-25 15:34:00,
2013-05-25 11:04:00,63.2,48.0,30.24,SE,140,11.0,21.0,63,0.00,,,-99.99,,2013-05-25 16:04:00,
2013-05-25 11:34:00,63.6,48.0,30.24,SE,140,11.0,21.0,63,0.00,,,-99.99,,2013-05-25 16:34:00,
2013-05-25 12:04:00,63.8,46.0,30.26,SE,140,12.0,24.0,59,0.00,,,-99.99,,2013-05-25 17:04:00,
2013-05-25 12:34:00,63.0,46.0,30.26,SE,140,12.0,24.0,59,0.00,,,-99.99,,2013-05-25 17:34:00,
2013-05-25 13:04:00,62.0,44.0,30.26,SE,140,16.0,24.0,55,0.00,,,-99.99,,2013-05-25 18:04:00,
2013-05-25 13:34:00,62.8,44.0,30.26,SE,140,16.0,24.0,55,0.00,,,-99.99,,2013-05-25 18:34:00,
2013-05-25 14:04:00,65.1,46.0,30.26,SSE,150,12.0,0.0,59,0.00,,,-99.99,,2013-05-25 19:04:00,
2013-05-25 14:34:00,62.6,46.0,30.26,SSE,150,12.0,0.0,59,0.00,,,-99.99,,2013-05-25 19:34:00,
2013-05-25 15:04:00,62.8,48.0,30.26,South,170,16.0,21.0,63,0.00,,,-99.99,,2013-05-25 20:04:00,
2013-05-25 15:34:00,62.4,48.0,30.26,South,170,16.0,21.0,63,0.00,,,-99.99,,2013-05-25 20:34:00,
2013-05-25 16:04:00,64.3,48.0,30.26,SE,130,14.0,0.0,63,0.00,,,-99.99,,2013-05-25 21:04:00,
2013-05-25 16:34:00,61.8,48.0,30.26,SE,130,14.0,0.0,63,0.00,,,-99.99,,2013-05-25 21:34:00,
2013-05-25 17:04:00,62.2,48.0,30.24,SE,140,16.0,0.0,63,0.00,,,-99.99,,2013-05-25 22:04:00,
2013-05-25 17:34:00,63.2,48.0,30.24,SE,140,16.0,0.0,63,0.00,,,-99.99,,2013-05-25 22:34:00,
2013-05-25 18:04:00,60.9,48.0,30.24,SE,130,17.0,24.0,67,0.00,,,-99.99,,2013-05-25 23:04:00,
2013-05-25 18:34:00,59.8,48.0,30.24,SE,130,17.0,24.0,67,0.00,,,-99.99,,2013-05-25 23:34:00,
2013-05-25 19:04:00,59.0,46.0,30.24,SE,140,13.0,0.0,67,0.00,,,-99.99,,2013-05-26 00:04:00,
2013-05-25 19:34:00,58.5,46.0,30.24,SE,140,13.0,0.0,67,0.00,,,-99.99,,2013-05-26 00:34:00,
2013-05-25 20:04:00,57.8,46.0,30.24,SE,140,6.0,0.0,67,0.00,,,-99.99,,2013-05-26 01:04:00,
2013-05-25 20:34:00,57.1,46.0,30.24,SE,140,6.0,0.0,67,0.00,,,-99.99,,2013-05-26 01:34:00,
2013-05-25 21:04:00,57.4,46.0,30.23,SE,140,8.0,0.0,67,0.00,,,-99.99,,2013-05-26 02:04:00,
2013-05-25 21:34:00,58.0,46.0,30.23,SE,140,8.0,0.0,67,0.00,,,-99.99,,2013-05-26 02:34:00,
2013-05-25 22:04:00,57.2,46.0,30.25,SE,140,8.0,0.0,67,0.00,,,-99.99,,2013-05-26 03:04:00,
2013-05-25 22:34:00,58.0,46.0,30.25,SE,140,8.0,0.0,67,0.00,,,-99.99,,2013-05-26 03:34:00,
2013-05-25 23:04:00,57.2,44.0,30.25,SE,140,12.0,0.0,62,0.00,,,-99.99,,2013-05-26 04:04:00,
2013-05-25 23:34:00,56.5,44.0,30.25,SE,140,12.0,0.0,62,0.00,,,-99.99,,2013-05-26 04:34:00,